Time;durP1;ratioP1;P1;durP2;ratioP2;P2;SDS_P1;SDS_P2;PMS_P1;PMS_P2;Temp;Humidity;BMP_temperature;BMP_pressure;BME280_temperature;BME280_humidity;BME280_pressure;Samples;Min_cycle;Max_cycle;Signal;HPM_P1;HPM_P2
2023/10/27 00:00:31;;;;;;;18.75;14.00;;;11.40;99.90;;;11.76;80.29;98226.91;5027216;28;20072;-82
2023/10/27 00:02:59;;;;;;;22.73;13.10;;;11.40;99.90;;;11.75;80.01;98229.84;5045685;28;20148;-82
2023/10/27 00:05:28;;;;;;;20.85;13.43;;;11.40;99.90;;;11.72;79.76;98228.53;5027572;28;20095;-82
2023/10/27 00:07:56;;;;;;;20.42;12.00;;;11.40;99.90;;;11.68;79.81;98230.16;5044865;28;20049;-82
2023/10/27 00:10:26;;;;;;;21.88;13.80;;;11.30;99.90;;;11.66;80.14;98229.59;5045116;28;20064;-82
2023/10/27 00:12:53;;;;;;;17.38;12.80;;;11.30;99.90;;;11.64;79.78;98222.94;5044702;28;20049;-82
2023/10/27 00:15:21;;;;;;;16.75;12.57;;;11.30;99.90;;;11.66;79.82;98216.25;5011358;28;20053;-82
2023/10/27 00:17:49;;;;;;;19.42;13.20;;;11.30;99.90;;;11.69;79.66;98228.28;5024429;28;20421;-82
2023/10/27 00:20:16;;;;;;;22.27;13.40;;;11.30;99.90;;;11.71;79.87;98232.28;5022615;28;20480;-82
2023/10/27 00:22:43;;;;;;;19.85;13.30;;;11.30;99.90;;;11.72;80.21;98225.84;5012165;28;20038;-82
2023/10/27 00:25:12;;;;;;;18.75;13.35;;;11.30;99.90;;;11.72;80.28;98228.53;5022086;28;20052;-82
2023/10/27 00:27:41;;;;;;;20.70;13.82;;;11.40;99.90;;;11.72;80.56;98230.41;5022845;28;20069;-82
2023/10/27 00:30:10;;;;;;;20.42;14.68;;;11.40;99.90;;;11.74;80.92;98222.91;5022942;28;20100;-82
2023/10/27 00:32:39;;;;;;;19.10;13.52;;;11.40;99.90;;;11.72;81.06;98223.19;5022204;28;20042;-82
2023/10/27 00:35:07;;;;;;;19.17;13.70;;;11.40;99.90;;;11.74;81.36;98223.69;4989851;28;20046;-82
2023/10/27 00:37:35;;;;;;;21.48;13.70;;;11.40;99.90;;;11.74;81.27;98221.03;5023201;28;20045;-82
2023/10/27 00:40:03;;;;;;;23.42;13.52;;;11.40;99.90;;;11.73;81.21;98218.66;5024167;28;20497;-82
2023/10/27 00:42:31;;;;;;;20.35;13.90;;;11.40;99.90;;;11.70;81.47;98214.63;5024732;28;20042;-82
2023/10/27 00:45:00;;;;;;;17.90;13.18;;;11.40;99.90;;;11.70;81.93;98219.19;5022845;28;20054;-82
2023/10/27 00:47:30;;;;;;;18.92;12.95;;;11.40;99.90;;;11.70;81.90;98213.84;5024306;28;20042;-82
2023/10/27 00:49:57;;;;;;;18.00;13.00;;;11.40;99.90;;;11.70;81.91;98211.97;5023946;28;20038;-82
2023/10/27 00:52:26;;;;;;;21.27;14.10;;;11.40;99.90;;;11.70;82.06;98217.31;5023258;28;20038;-82
2023/10/27 00:54:56;;;;;;;21.05;14.63;;;11.50;99.90;;;11.71;82.02;98205.56;5056753;28;20073;-82
2023/10/27 00:57:24;;;;;;;18.45;12.95;;;11.50;99.90;;;11.72;82.17;98214.38;5023693;28;20077;-83
2023/10/27 00:59:53;;;;;;;17.77;12.23;;;11.50;99.90;;;11.73;82.13;98216.78;5024372;28;20057;-81
2023/10/27 01:02:23;;;;;;;22.23;13.38;;;11.40;99.90;;;11.72;82.32;98209.84;5056729;28;20041;-82
2023/10/27 01:04:51;;;;;;;19.70;13.57;;;11.40;99.90;;;11.72;82.39;98209.03;5007291;28;20153;-82
2023/10/27 01:07:20;;;;;;;19.00;13.20;;;11.40;99.90;;;11.71;82.47;98208.25;5023365;28;20140;-82
2023/10/27 01:09:48;;;;;;;19.67;14.05;;;11.40;99.90;;;11.72;82.41;98204.50;5056266;28;20042;-82
2023/10/27 01:12:15;;;;;;;21.30;13.27;;;11.40;99.90;;;11.73;82.44;98206.09;5023928;28;20042;-82
2023/10/27 01:14:43;;;;;;;20.15;12.98;;;11.40;99.90;;;11.75;82.36;98206.59;5038982;28;20096;-82
2023/10/27 01:17:11;;;;;;;22.02;13.90;;;11.50;99.90;;;11.76;82.45;98204.72;5055862;28;20045;-82
2023/10/27 01:19:40;;;;;;;19.80;13.57;;;11.50;99.90;;;11.78;82.38;98210.59;5023111;28;20050;-83
2023/10/27 01:22:07;;;;;;;20.52;13.80;;;11.50;99.90;;;11.78;82.24;98203.38;5023667;28;20465;-82
2023/10/27 01:24:36;;;;;;;21.25;14.10;;;11.50;99.90;;;11.79;82.48;98206.84;5055863;28;20057;-82
2023/10/27 01:27:04;;;;;;;20.63;12.82;;;11.50;99.90;;;11.77;82.42;98204.47;5006587;28;20125;-82
2023/10/27 01:29:32;;;;;;;23.75;13.38;;;11.50;99.90;;;11.78;82.62;98208.72;5022789;28;20049;-82
2023/10/27 01:32:00;;;;;;;19.33;13.02;;;11.50;99.90;;;11.77;82.70;98207.13;5007679;28;20412;-82
2023/10/27 01:34:27;;;;;;;22.23;12.50;;;11.50;99.90;;;11.79;82.99;98204.19;5022835;28;20061;-82
2023/10/27 01:36:55;;;;;;;20.52;12.35;;;11.50;99.90;;;11.82;82.89;98209.81;5023667;28;20054;-82
2023/10/27 01:39:22;;;;;;;18.45;11.73;;;11.50;99.90;;;11.83;82.78;98206.06;5022245;28;20112;-82
2023/10/27 01:41:51;;;;;;;23.90;11.80;;;11.60;99.90;;;11.87;83.06;98208.19;5022099;28;20508;-82
2023/10/27 01:44:19;;;;;;;20.50;11.27;;;11.60;99.90;;;11.87;83.17;98198.31;5020116;28;20042;-82
2023/10/27 01:46:46;;;;;;;18.23;10.23;;;11.60;99.90;;;11.90;83.26;98202.28;5003851;28;20133;-82
2023/10/27 01:49:14;;;;;;;15.77;10.23;;;11.70;99.90;;;11.92;83.53;98208.16;5005626;28;20049;-82
2023/10/27 01:51:42;;;;;;;17.55;9.57;;;11.60;99.90;;;11.93;83.23;98199.88;5004278;28;20077;-81
2023/10/27 01:54:09;;;;;;;21.50;9.77;;;11.70;99.90;;;11.94;83.28;98208.69;5005023;28;20097;-81
2023/10/27 01:56:37;;;;;;;16.58;9.80;;;11.70;99.90;;;11.92;83.72;98203.63;5004787;28;20046;-82
2023/10/27 01:59:07;;;;;;;22.00;9.68;;;11.70;99.90;;;11.92;84.04;98208.16;4989308;28;20491;-82
2023/10/27 02:01:34;;;;;;;17.92;9.07;;;11.70;99.90;;;11.92;84.25;98197.47;4988557;28;20034;-82
2023/10/27 02:04:01;;;;;;;14.10;8.60;;;11.70;99.90;;;11.93;84.30;98201.75;5005904;28;20049;-82
2023/10/27 02:06:29;;;;;;;19.60;9.20;;;11.70;99.90;;;11.94;84.14;98206.00;5004774;28;20115;-82
2023/10/27 02:08:56;;;;;;;15.98;8.73;;;11.70;99.90;;;11.92;84.42;98198.28;5004571;28;20103;-82
2023/10/27 02:11:24;;;;;;;17.85;8.15;;;11.70;99.90;;;11.94;84.44;98200.66;5005276;28;20042;-82
2023/10/27 02:13:52;;;;;;;21.05;7.93;;;11.70;99.90;;;11.94;84.28;98200.66;5021624;28;20053;-82
2023/10/27 02:16:20;;;;;;;19.23;8.48;;;11.70;99.90;;;11.95;84.42;98200.38;4984507;28;20054;-82
2023/10/27 02:18:48;;;;;;;21.40;8.35;;;11.70;99.90;;;11.97;84.21;98198.25;5004778;28;20042;-82
2023/10/27 02:21:15;;;;;;;21.02;8.27;;;11.70;99.90;;;11.98;84.34;98204.38;5035998;28;20118;-82
2023/10/27 02:23:44;;;;;;;17.02;8.38;;;11.70;99.90;;;12.00;84.66;98205.69;4978222;28;20042;-84
2023/10/27 02:26:11;;;;;;;19.55;8.07;;;11.80;99.90;;;12.00;84.28;98202.22;5012590;28;20048;-82
2023/10/27 02:28:38;;;;;;;16.63;7.50;;;11.70;99.90;;;11.99;84.38;98196.09;5021407;28;20065;-82
2023/10/27 02:31:06;;;;;;;16.63;7.80;;;11.70;99.90;;;11.98;84.45;98189.16;5022065;28;20042;-82
2023/10/27 02:33:36;;;;;;;15.05;7.32;;;11.80;99.90;;;12.01;84.44;98187.81;5009867;28;20042;-82
2023/10/27 02:36:05;;;;;;;22.30;8.05;;;11.70;99.90;;;11.99;84.41;98179.25;5052169;28;20037;-82
2023/10/27 02:38:32;;;;;;;16.35;7.75;;;11.70;99.90;;;11.98;84.34;98181.16;5021565;28;20520;-82
2023/10/27 02:41:08;;;;;;;17.77;7.28;;;11.70;99.90;;;11.98;84.51;98173.13;5022403;28;20053;-82
2023/10/27 02:43:37;;;;;;;25.27;7.47;;;11.70;99.90;;;11.98;84.35;98170.47;5023578;28;20046;-82
2023/10/27 02:46:05;;;;;;;16.95;6.20;;;11.80;99.90;;;11.99;84.50;98168.59;5038484;28;20099;-82
2023/10/27 02:48:35;;;;;;;22.48;6.50;;;11.70;99.90;;;11.98;84.46;98165.13;5021037;28;20049;-82
2023/10/27 02:51:05;;;;;;;17.98;6.03;;;11.80;99.90;;;11.99;84.47;98165.91;5023155;28;20045;-82
2023/10/27 02:53:32;;;;;;;13.80;5.88;;;11.70;99.90;;;11.99;84.50;98160.56;5038747;28;20488;-82
2023/10/27 02:56:06;;;;;;;11.98;5.30;;;11.70;99.90;;;12.00;84.55;98157.59;5019420;28;20046;-82
2023/10/27 02:58:34;;;;;;;15.93;5.40;;;11.70;99.90;;;12.01;84.22;98148.53;5040863;28;20049;-82
2023/10/27 03:01:07;;;;;;;18.02;5.57;;;11.80;99.90;;;12.02;84.13;98149.34;4989927;28;20052;-82
2023/10/27 03:03:36;;;;;;;15.77;5.47;;;11.80;99.90;;;12.02;84.10;98144.78;5008986;28;20068;-82
2023/10/27 03:06:04;;;;;;;16.02;5.43;;;11.80;99.90;;;12.04;83.81;98141.84;5024584;28;20046;-82
2023/10/27 03:08:35;;;;;;;12.15;5.05;;;11.80;99.90;;;12.03;83.50;98141.03;5024669;28;20056;-82
2023/10/27 03:11:03;;;;;;;11.98;4.95;;;11.80;99.90;;;12.04;83.35;98136.50;5041532;28;20034;-82
2023/10/27 03:13:32;;;;;;;12.93;4.78;;;11.80;99.90;;;12.03;83.62;98134.91;5043213;28;20056;-81
2023/10/27 03:15:59;;;;;;;11.57;5.15;;;11.80;99.90;;;12.03;83.60;98124.22;5026080;28;20054;-82
2023/10/27 03:18:28;;;;;;;16.08;4.35;;;11.70;99.90;;;12.03;83.42;98124.22;5023969;28;20046;-82
2023/10/27 03:20:57;;;;;;;13.75;4.72;;;11.70;99.90;;;12.00;83.49;98130.91;5040546;28;20048;-83
2023/10/27 03:23:26;;;;;;;15.57;5.18;;;11.70;99.90;;;11.99;83.33;98123.97;5024288;28;20046;-82
2023/10/27 03:25:54;;;;;;;12.40;5.20;;;11.70;99.90;;;11.99;83.65;98128.50;5041539;28;20110;-82
2023/10/27 03:28:22;;;;;;;13.80;5.30;;;11.70;99.90;;;12.00;83.40;98132.78;5024865;28;20525;-82
2023/10/27 03:30:50;;;;;;;15.68;4.97;;;11.70;99.90;;;11.99;83.39;98128.50;5006411;28;20042;-82
2023/10/27 03:33:19;;;;;;;16.08;4.95;;;11.70;99.90;;;12.00;nan;98127.44;5038786;28;20497;-82
2023/10/27 03:35:49;;;;;;;15.90;5.70;;;11.70;99.90;;;11.99;83.30;98123.16;5040582;28;20221;-82
2023/10/27 03:38:18;;;;;;;13.18;5.18;;;11.80;99.90;;;12.00;83.48;98125.56;5005875;28;20072;-82
2023/10/27 03:40:47;;;;;;;12.10;4.60;;;11.70;99.90;;;12.00;83.17;98122.88;5022605;28;20081;-82
2023/10/27 03:43:16;;;;;;;14.02;4.70;;;11.70;99.90;;;12.00;83.30;98122.09;5022688;28;20046;-82
2023/10/27 03:45:43;;;;;;;10.68;4.20;;;11.70;99.90;;;11.99;83.19;98123.97;5055004;28;20412;-81
2023/10/27 03:48:11;;;;;;;14.30;4.72;;;11.70;99.90;;;11.97;83.20;98120.00;5024428;28;20045;-82
2023/10/27 03:50:39;;;;;;;11.32;4.35;;;11.70;99.90;;;11.98;83.29;98121.56;5023252;28;20428;-82
2023/10/27 03:53:07;;;;;;;14.10;4.13;;;11.60;99.90;;;12.00;83.26;98127.44;5006379;28;20081;-82
2023/10/27 03:55:35;;;;;;;12.52;4.50;;;11.70;99.90;;;11.97;83.20;98120.78;5023414;28;20062;-82
2023/10/27 03:58:16;;;;;;;15.25;4.35;;;11.70;99.90;;;11.97;83.16;98123.44;5006431;28;20053;-82
2023/10/27 04:00:45;;;;;;;16.75;4.63;;;11.70;99.90;;;11.99;83.04;98126.63;5024416;28;20049;-82
2023/10/27 04:03:13;;;;;;;14.48;4.70;;;11.70;99.90;;;11.98;83.11;98122.38;5023867;28;20469;-82
2023/10/27 04:05:41;;;;;;;13.73;4.78;;;11.80;99.90;;;12.01;83.19;98123.69;5039953;28;20124;-82
2023/10/27 04:08:09;;;;;;;11.93;4.45;;;11.70;99.90;;;12.00;82.98;98122.09;5040935;28;20118;-82
2023/10/27 04:10:39;;;;;;;12.23;3.85;;;11.70;99.90;;;12.00;82.91;98111.41;5059501;28;20100;-82
2023/10/27 04:13:07;;;;;;;15.10;3.80;;;11.70;99.90;;;11.98;82.66;98109.03;5029282;28;20050;-82
2023/10/27 04:15:35;;;;;;;11.75;4.18;;;11.70;99.90;;;11.98;83.01;98117.03;4994878;28;20077;-82
2023/10/27 04:18:03;;;;;;;13.50;4.18;;;11.70;99.90;;;11.97;83.15;98109.31;5042687;28;20141;-82
2023/10/27 04:20:31;;;;;;;14.18;3.95;;;11.70;99.90;;;11.97;83.06;98109.31;5023286;28;20038;-82
2023/10/27 04:22:59;;;;;;;11.75;4.00;;;11.70;99.90;;;11.98;83.10;98110.88;5008176;28;20050;-82
2023/10/27 04:25:27;;;;;;;11.57;3.97;;;11.70;99.90;;;11.98;82.85;98109.03;5006420;28;20046;-82
2023/10/27 04:27:56;;;;;;;13.27;4.28;;;11.70;99.90;;;11.98;82.65;98106.34;4989897;28;20477;-82
2023/10/27 04:30:26;;;;;;;14.52;4.18;;;11.70;99.90;;;11.99;82.74;98107.94;5031024;28;20045;-82
2023/10/27 04:32:55;;;;;;;14.00;3.90;;;11.70;99.90;;;11.99;82.64;98105.25;5047537;28;20479;-82
2023/10/27 04:35:22;;;;;;;12.90;3.95;;;11.70;99.90;;;11.99;82.44;98107.94;5046614;28;20042;-82
2023/10/27 04:37:52;;;;;;;15.63;4.07;;;11.70;99.90;;;11.97;82.50;98107.44;5044298;28;20057;-87
2023/10/27 04:40:22;;;;;;;10.95;3.97;;;11.70;99.90;;;11.98;82.55;98105.56;5040239;28;20053;-85
2023/10/27 04:42:50;;;;;;;15.00;4.40;;;11.70;99.90;;;11.98;82.47;98110.88;5027268;28;20045;-82
2023/10/27 04:45:19;;;;;;;15.15;4.60;;;11.70;99.90;;;11.98;82.48;98111.69;5029739;28;20042;-82
2023/10/27 04:47:46;;;;;;;13.50;4.38;;;11.60;99.90;;;11.96;82.25;98108.50;5029124;28;20065;-82
2023/10/27 04:50:14;;;;;;;20.77;4.35;;;11.70;99.90;;;11.96;82.46;98107.72;5024085;28;20030;-85
2023/10/27 04:52:42;;;;;;;11.13;4.22;;;11.60;99.90;;;11.96;82.43;98108.50;5037707;28;20069;-85
2023/10/27 04:55:10;;;;;;;19.65;5.30;;;11.60;99.90;;;11.95;82.38;98109.56;5039061;28;20049;-84
2023/10/27 04:57:37;;;;;;;15.70;5.15;;;11.60;99.90;;;11.94;82.58;98099.16;5020436;28;20560;-85
2023/10/27 05:00:08;;;;;;;22.25;4.45;;;11.70;99.90;;;11.93;82.53;98097.56;5023136;28;20108;-86
2023/10/27 05:02:37;;;;;;;11.98;4.45;;;11.60;99.90;;;11.92;82.74;98093.31;5058096;28;20080;-84
2023/10/27 05:05:06;;;;;;;10.30;4.40;;;11.60;99.90;;;11.93;82.50;98102.91;5029329;28;20044;-84
2023/10/27 05:07:34;;;;;;;13.27;4.38;;;11.60;99.90;;;11.91;82.69;98105.88;5029298;28;20046;-85
2023/10/27 05:10:02;;;;;;;11.68;4.28;;;11.60;99.90;;;11.92;82.76;98104.00;5027403;28;20049;-85
2023/10/27 05:12:30;;;;;;;14.05;4.63;;;11.60;99.90;;;11.92;82.57;98090.66;5024977;28;20593;-85
2023/10/27 05:15:04;;;;;;;12.45;5.05;;;11.60;99.90;;;11.93;82.82;98089.56;5056272;28;20117;-85
2023/10/27 05:17:40;;;;;;;13.65;5.07;;;11.60;99.90;;;11.91;83.05;98099.72;5024777;28;20068;-85
2023/10/27 05:20:16;;;;;;;15.32;5.47;;;11.60;99.90;;;11.92;82.86;98096.78;5017603;28;20057;-85
2023/10/27 05:22:55;;;;;;;9.68;5.18;;;11.60;99.90;;;11.91;82.75;98099.72;5050371;28;20053;-87
2023/10/27 05:25:29;;;;;;;17.10;5.68;;;11.60;99.90;;;11.92;82.68;98099.44;5015366;28;20065;-86
2023/10/27 05:28:02;;;;;;;11.00;4.72;;;11.60;99.90;;;11.92;82.73;98096.00;5015249;28;20050;-88
2023/10/27 05:30:29;;;;;;;11.50;4.68;;;11.60;99.90;;;11.92;82.76;98098.66;5033256;28;20046;-83
2023/10/27 05:32:58;;;;;;;13.85;4.45;;;11.60;99.90;;;11.94;82.74;98104.50;5015048;28;20061;-83
2023/10/27 05:35:26;;;;;;;12.93;4.38;;;11.60;99.90;;;11.94;82.65;98104.50;5014836;28;20046;-84
2023/10/27 05:37:53;;;;;;;10.20;4.32;;;11.60;99.90;;;11.93;82.56;98101.03;5014470;28;20084;-84
2023/10/27 05:40:22;;;;;;;15.10;4.80;;;11.60;99.90;;;11.93;82.60;98109.06;5032748;28;20054;-83
2023/10/27 05:42:50;;;;;;;10.95;4.18;;;11.60;99.90;;;11.93;82.58;98113.59;5017449;28;20065;-83
2023/10/27 05:45:17;;;;;;;11.82;4.20;;;11.60;99.90;;;11.92;82.53;98112.81;5016830;28;20054;-83
2023/10/27 05:47:45;;;;;;;11.30;4.32;;;11.60;99.90;;;11.92;82.57;98112.00;5016448;28;20123;-82
2023/10/27 05:50:13;;;;;;;10.45;4.05;;;11.60;99.90;;;11.91;82.60;98111.22;5018703;28;20042;-83
2023/10/27 05:52:41;;;;;;;8.95;4.30;;;11.60;99.90;;;11.90;82.67;98108.81;5018136;28;20042;-84
2023/10/27 05:55:09;;;;;;;12.60;4.28;;;11.60;99.90;;;11.88;82.82;98111.75;5028201;28;20045;-83
2023/10/27 05:57:38;;;;;;;7.43;3.85;;;11.60;99.90;;;11.89;82.82;98113.34;5046063;28;20045;-81
2023/10/27 06:00:08;;;;;;;13.18;3.72;;;11.60;99.90;;;11.89;83.08;98109.88;5048079;28;20424;-81
2023/10/27 06:02:36;;;;;;;11.88;3.53;;;11.50;99.90;;;11.88;83.13;98114.44;5028424;28;20427;-81
2023/10/27 06:05:04;;;;;;;9.75;3.80;;;11.60;99.90;;;11.89;83.40;98112.56;5027516;28;20069;-81
2023/10/27 06:07:33;;;;;;;10.30;3.47;;;11.60;99.90;;;11.88;83.50;98111.75;5043937;28;20158;-81
2023/10/27 06:10:01;;;;;;;13.80;4.47;;;11.60;99.90;;;11.87;83.67;98115.50;5026931;28;20472;-81
2023/10/27 06:12:28;;;;;;;9.25;4.32;;;11.60;99.90;;;11.85;83.78;98114.97;5058421;28;20055;-81
2023/10/27 06:14:56;;;;;;;10.02;3.67;;;11.60;99.90;;;11.86;83.84;98113.94;5027811;28;20049;-81
2023/10/27 06:17:23;;;;;;;9.30;4.15;;;11.60;99.90;;;11.85;84.04;98115.78;5010473;28;20065;-81
2023/10/27 06:19:51;;;;;;;9.20;4.00;;;11.60;99.90;;;11.85;83.72;98113.09;4993770;28;20081;-81
2023/10/27 06:22:19;;;;;;;8.80;3.85;;;11.60;99.90;;;11.83;84.01;98104.56;5028295;28;20516;-81
2023/10/27 06:24:48;;;;;;;13.57;4.30;;;11.60;99.90;;;11.85;84.13;98106.97;5025114;28;20045;-81
2023/10/27 06:27:16;;;;;;;10.70;3.88;;;11.60;99.90;;;11.85;84.11;98113.09;5026628;28;20072;-82
2023/10/27 06:29:44;;;;;;;11.50;4.35;;;11.60;99.90;;;11.87;84.32;98112.84;5026328;28;20064;-81
2023/10/27 06:32:11;;;;;;;10.77;4.45;;;11.60;99.90;;;11.87;84.10;98115.50;5024415;28;20045;-82
2023/10/27 06:34:39;;;;;;;10.10;4.80;;;11.60;99.90;;;11.86;84.11;98119.25;5057145;28;20080;-82
2023/10/27 06:37:07;;;;;;;9.05;4.57;;;11.60;99.90;;;11.85;83.99;98113.09;5020846;28;20046;-81
2023/10/27 06:39:34;;;;;;;14.35;5.05;;;11.60;99.90;;;11.85;84.01;98113.09;5022108;28;20061;-82
2023/10/27 06:42:04;;;;;;;12.98;5.10;;;11.60;99.90;;;11.88;84.25;98116.31;5056820;28;20045;-82
2023/10/27 06:44:32;;;;;;;12.80;5.03;;;11.60;99.90;;;11.89;84.05;98109.88;5024565;28;20066;-81
2023/10/27 06:46:59;;;;;;;13.52;5.32;;;11.60;99.90;;;11.88;84.33;98111.75;5026408;28;20057;-82
2023/10/27 06:49:27;;;;;;;13.95;5.03;;;11.60;99.90;;;11.91;84.20;98107.72;5023348;28;20045;-82
2023/10/27 06:51:54;;;;;;;11.50;4.57;;;11.60;99.90;;;11.91;84.16;98111.22;5024235;28;20555;-82
2023/10/27 06:54:23;;;;;;;15.80;5.20;;;11.70;99.90;;;11.92;84.02;98109.34;5024384;28;20133;-81
2023/10/27 06:56:51;;;;;;;13.05;4.55;;;11.70;99.90;;;11.93;84.16;98113.59;5023621;28;20073;-81
2023/10/27 06:59:20;;;;;;;10.93;5.03;;;11.60;99.90;;;11.93;84.00;98114.41;4991957;28;20049;-83
2023/10/27 07:01:48;;;;;;;12.63;4.68;;;11.70;99.90;;;11.93;83.95;98114.41;5004999;28;20088;-82
2023/10/27 07:04:17;;;;;;;9.40;4.82;;;11.60;99.90;;;11.93;84.02;98118.94;5023346;28;20042;-82
2023/10/27 07:06:44;;;;;;;13.95;5.43;;;11.60;99.90;;;11.92;84.06;98118.16;5021033;28;20083;-82
2023/10/27 07:09:12;;;;;;;14.25;5.18;;;11.60;99.90;;;11.92;84.24;98118.16;5038682;28;20056;-82
2023/10/27 07:11:39;;;;;;;12.80;5.20;;;11.60;99.90;;;11.92;84.42;98126.16;5024973;28;20045;-80
2023/10/27 07:14:07;;;;;;;15.73;5.00;;;11.70;99.90;;;11.93;84.50;98119.75;5025943;28;20065;-81
2023/10/27 07:16:36;;;;;;;12.93;5.28;;;11.70;99.90;;;11.95;84.47;98114.91;5023149;28;20045;-81
2023/10/27 07:19:03;;;;;;;11.45;4.78;;;11.70;99.90;;;11.95;84.33;98112.22;5025421;28;20093;-81
2023/10/27 07:21:33;;;;;;;10.75;4.88;;;11.70;99.90;;;11.96;84.33;98113.06;5007174;28;20045;-81
2023/10/27 07:24:01;;;;;;;14.18;4.80;;;11.70;99.90;;;11.97;84.67;98111.97;5022748;28;20128;-83
2023/10/27 07:26:28;;;;;;;11.95;5.50;;;11.70;99.90;;;11.96;84.48;98113.06;5020544;28;20060;-84
2023/10/27 07:28:56;;;;;;;13.02;5.28;;;11.70;99.90;;;11.98;84.76;98119.69;5021632;28;20038;-84
2023/10/27 07:31:23;;;;;;;12.35;5.40;;;11.70;99.90;;;11.99;84.84;98113.28;4996390;28;20489;-85
2023/10/27 07:33:53;;;;;;;14.63;6.28;;;11.70;99.90;;;12.00;84.73;98114.06;5022376;28;20146;-82
2023/10/27 07:36:21;;;;;;;11.88;6.47;;;11.80;99.90;;;12.00;84.87;98120.22;5057235;28;20118;-82
2023/10/27 07:38:50;;;;;;;12.00;5.68;;;11.80;99.90;;;12.01;84.94;98116.47;5040272;28;20056;-82
2023/10/27 07:41:17;;;;;;;18.10;5.55;;;11.80;99.90;;;12.02;85.04;98117.28;5026285;28;20100;-82
2023/10/27 07:43:45;;;;;;;15.07;5.93;;;11.80;99.90;;;12.01;85.24;98111.13;5028867;28;20050;-81
2023/10/27 07:46:13;;;;;;;14.65;5.13;;;11.80;99.90;;;12.01;85.01;98113.03;5061998;28;20050;-82
2023/10/27 07:48:40;;;;;;;14.13;5.47;;;11.80;99.90;;;12.02;85.09;98111.94;5030669;28;20148;-82
2023/10/27 07:51:09;;;;;;;14.63;5.75;;;11.80;99.90;;;12.03;85.26;98119.66;5029423;28;20080;-82
2023/10/27 07:53:38;;;;;;;13.85;4.95;;;11.80;99.90;;;12.05;85.57;98122.03;5045312;28;20084;-82
2023/10/27 07:56:07;;;;;;;9.68;4.28;;;11.90;99.90;;;12.06;85.48;98116.44;5030821;28;20104;-82
2023/10/27 07:58:35;;;;;;;14.65;5.00;;;11.90;99.90;;;12.08;85.23;98113.50;5028940;28;20050;-81
2023/10/27 08:01:05;;;;;;;15.20;5.20;;;11.90;99.90;;;12.08;85.52;98110.81;5045021;28;20418;-81
2023/10/27 08:03:34;;;;;;;17.02;5.55;;;11.90;99.90;;;12.09;85.56;98120.41;5046603;28;20049;-82
2023/10/27 08:06:05;;;;;;;12.48;5.20;;;11.90;99.90;;;12.10;85.87;98117.50;5012431;28;20038;-82
2023/10/27 08:08:37;;;;;;;10.35;4.95;;;11.90;99.90;;;12.11;86.03;98123.63;5029897;28;20042;-82
2023/10/27 08:11:05;;;;;;;;;;;11.90;99.90;;;12.11;86.14;98121.75;5031003;28;20046;-82
2023/10/27 08:13:33;;;;;;;10.52;5.00;;;11.90;99.90;;;12.11;86.26;98120.97;5029662;28;19940;-82
2023/10/27 08:16:02;;;;;;;8.57;4.13;;;11.90;99.90;;;12.14;86.33;98123.06;5029894;28;20468;-81
2023/10/27 08:18:30;;;;;;;8.13;3.95;;;11.90;99.90;;;12.15;86.48;98121.16;5029752;28;20501;-82
2023/10/27 08:20:58;;;;;;;10.70;4.57;;;12.00;99.90;;;12.16;86.36;98118.25;5028033;28;20132;-82
2023/10/27 08:23:26;;;;;;;7.93;4.13;;;12.00;99.90;;;12.17;86.42;98113.69;5029247;28;20045;-82
2023/10/27 08:25:55;;;;;;;10.45;3.50;;;12.00;99.90;;;12.21;86.51;98128.09;5060430;28;20108;-82
2023/10/27 08:28:22;;;;;;;9.52;3.20;;;12.00;99.90;;;12.17;86.34;98122.50;5029066;28;20042;-82
2023/10/27 08:30:50;;;;;;;7.10;2.90;;;12.00;99.90;;;12.17;86.38;98124.38;5010930;28;20498;-82
2023/10/27 08:33:17;;;;;;;6.53;3.10;;;12.00;99.90;;;12.17;86.08;98127.84;5061229;28;20037;-82
2023/10/27 08:35:45;;;;;;;7.65;3.15;;;12.00;99.90;;;12.15;86.26;98122.00;5029008;28;20050;-82
2023/10/27 08:38:15;;;;;;;8.20;2.70;;;12.00;99.90;;;12.17;86.51;98125.19;5044551;28;20050;-82
2023/10/27 08:40:44;;;;;;;5.50;2.45;;;12.00;99.90;;;12.18;86.31;98113.41;5029781;28;20413;-82
2023/10/27 08:43:13;;;;;;;6.35;2.70;;;12.00;99.90;;;12.19;86.68;98116.88;5029887;28;20045;-82
2023/10/27 08:45:42;;;;;;;7.72;2.40;;;12.00;99.90;;;12.21;86.70;98120.88;5028688;28;20054;-82
2023/10/27 08:48:10;;;;;;;6.43;2.05;;;12.00;99.90;;;12.23;86.53;98123.25;5060116;28;20046;-82
2023/10/27 08:50:40;;;;;;;5.82;2.15;;;12.00;99.90;;;12.22;86.22;98122.47;5026344;28;20132;-82
2023/10/27 08:53:09;;;;;;;8.07;2.17;;;12.10;99.90;;;12.22;86.49;98122.47;5027637;28;20505;-82
2023/10/27 08:55:37;;;;;;;5.20;2.20;;;12.00;99.90;;;12.23;86.68;98124.06;5043344;28;20117;-81
2023/10/27 08:58:06;;;;;;;4.95;1.80;;;12.00;99.90;;;12.22;86.89;98127.00;5043317;28;20049;-82
2023/10/27 09:00:36;;;;;;;6.60;2.25;;;12.10;99.90;;;12.21;86.95;98120.88;5043275;28;20052;-82
2023/10/27 09:03:18;;;;;;;5.50;2.03;;;12.00;99.90;;;12.23;86.86;98124.06;5027505;28;20056;-82
2023/10/27 09:05:46;;;;;;;4.75;1.88;;;12.00;99.90;;;12.24;86.52;98125.63;5028127;28;20046;-82
2023/10/27 09:08:13;;;;;;;6.22;1.90;;;12.00;99.90;;;12.25;86.59;98113.06;5027714;28;20081;-82
2023/10/27 09:10:41;;;;;;;5.82;2.05;;;12.10;99.90;;;12.25;86.60;98110.41;5027098;28;20464;-82
2023/10/27 09:13:11;;;;;;;5.00;2.05;;;12.10;99.90;;;12.24;86.57;98117.63;5026810;28;20050;-82
2023/10/27 09:15:45;;;;;;;9.10;2.15;;;12.10;99.90;;;12.24;86.95;98114.94;5057472;28;20052;-82
2023/10/27 09:18:14;;;;;;;6.82;1.95;;;12.10;99.90;;;12.22;86.80;98114.44;5024870;28;20050;-82
2023/10/27 09:20:49;;;;;;;4.00;1.70;;;12.00;99.90;;;12.22;86.85;98117.13;5025733;28;20046;-82
2023/10/27 09:23:17;;;;;;;6.28;2.03;;;12.10;99.90;;;12.15;86.82;98116.66;5028422;28;20508;-82
2023/10/27 09:25:46;;;;;;;9.48;2.88;;;12.00;99.90;;;12.09;87.42;98120.41;5027069;28;20073;-82
2023/10/27 09:28:14;;;;;;;4.50;2.20;;;12.00;99.90;;;12.05;88.12;98127.38;5059296;28;20054;-82
2023/10/27 09:30:44;;;;;;;6.00;2.67;;;12.00;99.90;;;12.04;88.50;98133.81;5028404;28;20045;-82
2023/10/27 09:33:15;;;;;;;6.93;2.38;;;12.00;99.90;;;11.98;88.91;98133.06;5060115;28;20048;-82
2023/10/27 09:35:43;;;;;;;5.35;2.72;;;12.00;99.90;;;11.92;89.52;98133.38;5028489;28;20038;-82
2023/10/27 09:38:12;;;;;;;5.63;3.03;;;12.00;99.90;;;11.95;89.76;98132.81;5026125;28;20096;-82
2023/10/27 09:40:41;;;;;;;7.22;3.08;;;12.00;99.90;;;11.86;90.40;98140.63;5026799;28;20506;-82
2023/10/27 09:43:09;;;;;;;4.78;2.67;;;11.90;99.90;;;11.91;90.85;98137.94;5027378;28;20073;-82
2023/10/27 09:45:41;;;;;;;5.53;2.95;;;12.00;99.90;;;11.97;91.07;98139.47;5027390;28;20046;-82
2023/10/27 09:48:11;;;;;;;6.43;2.97;;;12.00;99.90;;;12.06;91.24;98145.03;5059075;28;20068;-82
2023/10/27 09:50:40;;;;;;;5.35;3.00;;;12.00;99.90;;;12.04;91.17;98149.84;5026506;28;20050;-82
2023/10/27 09:53:07;;;;;;;6.43;3.10;;;12.10;99.90;;;12.04;91.62;98141.84;5026898;28;20042;-82
2023/10/27 09:55:37;;;;;;;5.53;2.95;;;12.10;99.90;;;12.04;91.45;98153.31;5026578;28;20510;-82
2023/10/27 09:58:04;;;;;;;5.10;2.72;;;12.10;99.90;;;12.04;91.25;98149.84;5042417;28;20137;-82
2023/10/27 10:00:32;;;;;;;5.82;2.85;;;12.00;99.90;;;12.09;91.66;98157.81;5025917;28;20466;-81
2023/10/27 10:03:01;;;;;;;6.13;2.75;;;12.00;99.90;;;12.16;91.36;98158.31;5028457;28;20417;-81
2023/10/27 10:05:50;;;;;;;6.10;2.60;;;12.10;99.90;;;12.21;91.34;98147.59;4993995;28;20118;-82
2023/10/27 10:08:20;;;;;;;5.82;2.70;;;12.20;99.90;;;12.22;91.34;98159.88;5026427;28;20081;-82
2023/10/27 10:10:47;;;;;;;6.00;2.40;;;12.20;99.90;;;12.18;91.74;98163.38;5027190;28;20547;-82
2023/10/27 10:13:16;;;;;;;3.85;2.35;;;12.20;99.90;;;12.22;91.88;98165.22;5041702;28;20038;-82
2023/10/27 10:15:45;;;;;;;4.43;2.60;;;12.20;99.90;;;12.26;92.02;98168.94;5042774;28;20072;-82
2023/10/27 10:18:52;;;;;;;4.70;2.53;;;12.30;99.90;;;12.31;91.52;98170.78;5027067;28;20046;-81